Time;durP1;ratioP1;P1;durP2;ratioP2;P2;SDS_P1;SDS_P2;PMS_P1;PMS_P2;Temp;Humidity;BMP_temperature;BMP_pressure;BME280_temperature;BME280_humidity;BME280_pressure;Samples;Min_cycle;Max_cycle;Signal;HPM_P1;HPM_P2
2021/04/30 00:00:26;;;;;;;26.33;17.63;;;435.30;2124.80;;;;;;5017640;28;20455;-65
2021/04/30 00:02:52;;;;;;;28.15;17.75;;;435.30;2124.80;;;;;;5017557;28;20427;-65
2021/04/30 00:05:19;;;;;;;30.80;17.95;;;435.30;2124.80;;;;;;5017749;28;20414;-72
2021/04/30 00:07:45;;;;;;;27.52;18.30;;;435.20;2124.80;;;;;;5017403;28;20370;-65
2021/04/30 00:10:11;;;;;;;25.15;17.30;;;435.20;2099.20;;;;;;5017471;28;20422;-67
2021/04/30 00:12:38;;;;;;;28.77;19.48;;;435.20;2099.20;;;;;;5017351;28;20413;-64
2021/04/30 00:15:05;;;;;;;26.10;18.33;;;435.20;2124.80;;;;;;5017273;28;20409;-65
2021/04/30 00:17:31;;;;;;;31.45;20.23;;;410.50;2124.80;;;;;;5017236;28;20344;-72
2021/04/30 00:19:57;;;;;;;25.92;18.67;;;435.20;2099.20;;;;;;5017829;28;20410;-71
2021/04/30 00:22:23;;;;;;;24.88;18.67;;;435.20;2124.80;;;;;;5017448;28;20459;-65
2021/04/30 00:24:49;;;;;;;30.17;19.02;;;435.20;2099.20;;;;;;5017169;28;20422;-66
2021/04/30 00:27:16;;;;;;;27.33;18.88;;;410.50;2099.20;;;;;;5017143;28;20367;-70
2021/04/30 00:29:42;;;;;;;29.38;21.10;;;435.20;2099.20;;;;;;5031819;28;20445;-70
2021/04/30 00:32:08;;;;;;;28.00;19.63;;;435.20;2073.60;;;;;;5036811;28;20426;-73
2021/04/30 00:34:34;;;;;;;25.45;19.77;;;435.20;2073.60;;;;;;5036646;28;20377;-65
2021/04/30 00:37:00;;;;;;;29.73;20.13;;;410.40;2099.20;;;;;;5036627;28;20374;-65
2021/04/30 00:39:26;;;;;;;24.85;19.13;;;410.40;2124.80;;;;;;5037003;28;20029;-65
2021/04/30 00:41:53;;;;;;;26.50;18.65;;;410.30;2099.20;;;;;;5036521;28;20462;-71
2021/04/30 00:44:19;;;;;;;28.70;19.27;;;410.40;2073.60;;;;;;5036537;28;20374;-69
2021/04/30 00:46:45;;;;;;;25.90;19.45;;;410.50;2073.60;;;;;;5036417;28;20466;-65
2021/04/30 00:49:12;;;;;;;30.83;20.02;;;410.40;2073.60;;;;;;5036385;28;20389;-64
2021/04/30 00:51:38;;;;;;;27.83;20.48;;;410.40;2099.20;;;;;;5036482;28;20501;-70
2021/04/30 00:54:05;;;;;;;32.08;20.55;;;410.30;2099.20;;;;;;5035150;28;20441;-64
2021/04/30 00:56:33;;;;;;;27.70;19.88;;;410.20;2099.20;;;;;;5036254;28;20061;-64
2021/04/30 00:59:00;;;;;;;29.02;21.10;;;410.10;2099.20;;;;;;5035668;28;20100;-64
2021/04/30 01:01:27;;;;;;;31.30;20.20;;;410.00;2124.80;;;;;;5036350;28;20489;-71
2021/04/30 01:03:53;;;;;;;28.67;19.23;;;410.00;2124.80;;;;;;5036256;28;20517;-63
2021/04/30 01:06:20;;;;;;;31.38;19.77;;;410.00;2124.80;;;;;;5036146;28;20466;-66
2021/04/30 01:08:47;;;;;;;25.02;18.65;;;410.10;2124.80;;;;;;5036117;28;20458;-71
2021/04/30 01:11:14;;;;;;;28.88;20.08;;;410.00;2124.80;;;;;;5036372;28;20462;-70
2021/04/30 01:13:40;;;;;;;26.55;19.17;;;410.00;2124.80;;;;;;5036007;28;20402;-64
2021/04/30 01:16:07;;;;;;;24.75;18.77;;;410.00;2124.80;;;;;;5035924;28;20112;-71
2021/04/30 01:18:44;;;;;;;26.42;19.65;;;409.90;2124.80;;;;;;5035912;28;20421;-64
2021/04/30 01:21:11;;;;;;;31.88;20.52;;;409.90;2150.40;;;;;;5036015;28;20377;-64
2021/04/30 01:23:47;;;;;;;29.80;20.80;;;409.80;2150.40;;;;;;5035807;28;20466;-63
2021/04/30 01:26:13;;;;;;;26.77;20.75;;;409.80;2176.00;;;;;;5035849;28;20028;-64
2021/04/30 01:28:39;;;;;;;25.38;19.33;;;409.70;2201.60;;;;;;5026195;28;20540;-64
2021/04/30 01:31:06;;;;;;;25.83;19.02;;;409.60;2176.00;;;;;;5015938;28;20434;-64
2021/04/30 01:33:32;;;;;;;26.98;20.05;;;409.70;2176.00;;;;;;5015946;28;20483;-64
2021/04/30 01:35:58;;;;;;;31.25;20.83;;;409.70;2176.00;;;;;;5015729;28;20374;-71
2021/04/30 01:38:24;;;;;;;30.98;19.38;;;409.60;2176.00;;;;;;5015827;28;20389;-64
2021/04/30 01:40:50;;;;;;;26.05;19.13;;;409.60;2176.00;;;;;;4998493;28;20390;-65
2021/04/30 01:43:19;;;;;;;26.95;20.00;;;409.70;2176.00;;;;;;5015755;28;20366;-63
2021/04/30 01:46:03;;;;;;;26.83;18.15;;;409.70;2150.40;;;;;;5015640;28;20366;-67
2021/04/30 01:48:30;;;;;;;28.58;19.45;;;409.60;2150.40;;;;;;5015658;28;20373;-63
2021/04/30 01:50:58;;;;;;;31.25;19.63;;;409.70;2150.40;;;;;;5015563;28;20348;-71
2021/04/30 01:53:26;;;;;;;24.17;18.73;;;409.70;2150.40;;;;;;5015583;28;20470;-63
2021/04/30 01:55:53;;;;;;;25.42;18.35;;;409.60;2176.00;;;;;;5015330;28;20378;-63
2021/04/30 01:58:20;;;;;;;30.02;19.88;;;409.80;2150.40;;;;;;5015508;28;20402;-65
2021/04/30 02:00:47;;;;;;;27.35;20.48;;;409.70;2150.40;;;;;;5015406;28;20366;-71
2021/04/30 02:03:14;;;;;;;28.13;19.52;;;409.60;2176.00;;;;;;5015385;28;20382;-64
2021/04/30 02:05:41;;;;;;;27.55;18.95;;;409.60;2176.00;;;;;;5015322;28;20348;-64
2021/04/30 02:08:12;;;;;;;28.70;19.42;;;409.60;2176.00;;;;;;5015224;28;20438;-64
2021/04/30 02:10:39;;;;;;;32.28;20.52;;;409.60;2150.40;;;;;;5014345;28;20371;-64
2021/04/30 02:13:07;;;;;;;26.25;19.98;;;409.60;2150.40;;;;;;5014979;28;20433;-64
2021/04/30 02:15:36;;;;;;;28.70;20.52;;;409.60;2150.40;;;;;;5015048;28;20463;-64
2021/04/30 02:18:03;;;;;;;25.38;20.05;;;409.60;2150.40;;;;;;5015053;28;20371;-64
2021/04/30 02:20:29;;;;;;;30.20;19.98;;;409.60;2150.40;;;;;;5014968;28;20366;-63
2021/04/30 02:22:56;;;;;;;24.98;19.40;;;384.90;2176.00;;;;;;5015023;28;20398;-64
2021/04/30 02:25:22;;;;;;;26.20;19.88;;;384.80;2176.00;;;;;;5014899;28;20462;-64
2021/04/30 02:27:51;;;;;;;26.88;21.70;;;384.80;2176.00;;;;;;5014712;28;20406;-71
2021/04/30 02:30:19;;;;;;;28.95;20.40;;;384.80;2176.00;;;;;;4997333;28;20414;-71
2021/04/30 02:32:46;;;;;;;28.02;20.85;;;384.80;2176.00;;;;;;5014812;28;20352;-72
2021/04/30 02:35:24;;;;;;;26.67;20.35;;;384.80;2176.00;;;;;;5014673;28;20375;-70
2021/04/30 02:37:51;;;;;;;30.08;19.92;;;384.80;2176.00;;;;;;5014682;28;20386;-64
2021/04/30 02:40:20;;;;;;;23.58;18.95;;;384.80;2150.40;;;;;;5014657;28;20405;-70
2021/04/30 02:42:47;;;;;;;26.73;20.25;;;384.70;2150.40;;;;;;5014582;28;20394;-71
2021/04/30 02:45:15;;;;;;;28.70;21.20;;;384.70;2176.00;;;;;;5014560;28;20378;-63
2021/04/30 02:47:46;;;;;;;31.88;22.38;;;384.60;2176.00;;;;;;5014842;28;20490;-63
2021/04/30 02:50:13;;;;;;;31.83;21.27;;;384.60;2176.00;;;;;;5014527;28;20363;-64
2021/04/30 02:52:40;;;;;;;28.60;21.23;;;384.70;2176.00;;;;;;5014415;28;20586;-63
2021/04/30 02:55:07;;;;;;;27.85;20.80;;;384.70;2176.00;;;;;;5014294;28;20471;-63
2021/04/30 02:57:33;;;;;;;26.83;20.65;;;384.70;2176.00;;;;;;5014360;28;20370;-63
2021/04/30 03:00:00;;;;;;;28.42;20.85;;;384.60;2201.60;;;;;;5014320;28;20416;-64
2021/04/30 03:02:26;;;;;;;31.20;22.20;;;384.50;2201.60;;;;;;5014291;28;20370;-71
2021/04/30 03:04:53;;;;;;;33.65;22.38;;;384.50;2201.60;;;;;;5014212;28;20419;-63
2021/04/30 03:07:19;;;;;;;30.67;22.30;;;384.50;2201.60;;;;;;5014167;28;20501;-63
2021/04/30 03:09:45;;;;;;;34.78;23.08;;;384.50;2201.60;;;;;;5014135;28;20029;-70
2021/04/30 03:12:12;;;;;;;32.65;23.52;;;384.60;2176.00;;;;;;4996564;28;20419;-64
2021/04/30 03:14:38;;;;;;;34.47;25.30;;;384.50;2201.60;;;;;;5014007;28;20414;-63
2021/04/30 03:17:04;;;;;;;30.88;23.27;;;384.50;2201.60;;;;;;5014126;28;20349;-63
2021/04/30 03:19:30;;;;;;;29.88;22.98;;;384.40;2201.60;;;;;;5014242;28;20427;-63
2021/04/30 03:21:56;;;;;;;33.38;21.42;;;384.50;2176.00;;;;;;5013791;28;20379;-71
2021/04/30 03:24:22;;;;;;;36.17;23.70;;;384.60;2176.00;;;;;;5013992;28;20447;-69
2021/04/30 03:26:49;;;;;;;35.15;22.75;;;384.50;2176.00;;;;;;5014005;28;20366;-73
2021/04/30 03:29:15;;;;;;;31.77;21.08;;;384.50;2176.00;;;;;;5013776;28;20395;-63
2021/04/30 03:31:41;;;;;;;31.38;21.65;;;384.50;2176.00;;;;;;5014140;28;20109;-71
2021/04/30 03:34:08;;;;;;;29.30;21.00;;;384.50;2176.00;;;;;;5013828;28;20374;-71
2021/04/30 03:36:34;;;;;;;31.40;21.60;;;384.50;2201.60;;;;;;5013843;28;20459;-64
2021/04/30 03:39:02;;;;;;;31.40;20.88;;;384.50;2176.00;;;;;;5013766;28;20501;-64
2021/04/30 03:41:29;;;;;;;29.02;21.20;;;384.60;2176.00;;;;;;5013836;28;20454;-70
2021/04/30 03:43:56;;;;;;;28.98;19.95;;;384.70;2176.00;;;;;;5013718;28;20405;-64
2021/04/30 03:46:22;;;;;;;28.67;20.02;;;384.70;2201.60;;;;;;5013777;28;20366;-64
2021/04/30 03:48:48;;;;;;;31.00;20.48;;;384.70;2176.00;;;;;;5013698;28;20463;-64
2021/04/30 03:51:15;;;;;;;27.98;20.80;;;384.80;2176.00;;;;;;5013740;28;20482;-63
2021/04/30 03:53:41;;;;;;;33.28;20.75;;;384.70;2176.00;;;;;;5013668;28;20351;-64
2021/04/30 03:56:07;;;;;;;28.83;20.13;;;384.70;2176.00;;;;;;5013538;28;20481;-63
2021/04/30 03:58:33;;;;;;;31.25;21.00;;;384.80;2150.40;;;;;;5013653;28;20022;-71
2021/04/30 04:01:00;;;;;;;29.02;22.10;;;384.90;2150.40;;;;;;5013580;28;20422;-64
2021/04/30 04:03:26;;;;;;;32.10;21.10;;;384.90;2176.00;;;;;;5013621;28;20451;-71
2021/04/30 04:05:52;;;;;;;30.02;20.55;;;384.80;2176.00;;;;;;5013563;28;20423;-69
2021/04/30 04:08:18;;;;;;;31.60;20.65;;;384.90;2150.40;;;;;;5013598;28;20378;-63
2021/04/30 04:10:44;;;;;;;28.38;20.73;;;384.90;2176.00;;;;;;4995947;28;20025;-71
2021/04/30 04:13:22;;;;;;;27.42;20.23;;;409.60;2176.00;;;;;;5013663;28;20366;-63
2021/04/30 04:15:49;;;;;;;28.90;19.27;;;384.90;2176.00;;;;;;5013677;28;20422;-72
2021/04/30 04:18:17;;;;;;;28.75;19.20;;;384.90;2176.00;;;;;;5013382;28;20363;-64
2021/04/30 04:20:43;;;;;;;30.50;20.48;;;384.90;2176.00;;;;;;5013431;28;20549;-71
2021/04/30 04:23:10;;;;;;;29.23;20.77;;;384.90;2201.60;;;;;;5013582;28;20386;-64
2021/04/30 04:25:37;;;;;;;33.42;21.10;;;384.80;2227.20;;;;;;5013391;28;20521;-64
2021/04/30 04:28:04;;;;;;;30.88;19.63;;;384.80;2227.20;;;;;;5000813;28;20129;-64
2021/04/30 04:30:31;;;;;;;32.95;21.10;;;384.80;2227.20;;;;;;5033024;28;20397;-64
2021/04/30 04:32:57;;;;;;;30.67;20.55;;;384.90;2201.60;;;;;;5033059;28;20370;-64
2021/04/30 04:35:23;;;;;;;30.63;19.67;;;384.90;2201.60;;;;;;5035411;28;20374;-63
2021/04/30 04:37:49;;;;;;;28.85;20.95;;;409.60;2227.20;;;;;;5036988;28;20361;-66
2021/04/30 04:40:16;;;;;;;30.42;21.92;;;409.60;2227.20;;;;;;5036752;28;20394;-68
2021/04/30 04:42:44;;;;;;;30.27;21.83;;;409.60;2227.20;;;;;;5036931;28;20366;-67
2021/04/30 04:45:13;;;;;;;28.85;21.92;;;409.60;2227.20;;;;;;5037186;28;20017;-64
2021/04/30 04:47:40;;;;;;;34.67;22.15;;;409.70;2227.20;;;;;;5035336;28;20461;-63
2021/04/30 04:50:07;;;;;;;37.20;21.92;;;409.80;2227.20;;;;;;5036504;28;20474;-71
2021/04/30 04:52:34;;;;;;;31.45;22.10;;;409.80;2227.20;;;;;;5036524;28;20397;-63
2021/04/30 04:55:00;;;;;;;31.08;21.02;;;409.70;2252.80;;;;;;5036374;28;20397;-64
2021/04/30 04:57:26;;;;;;;28.08;21.08;;;409.70;2252.80;;;;;;5036394;28;20439;-71
2021/04/30 04:59:52;;;;;;;28.40;20.58;;;409.80;2252.80;;;;;;5036613;28;20362;-72
2021/04/30 05:02:18;;;;;;;31.10;21.60;;;409.80;2252.80;;;;;;5036578;28;20033;-62
2021/04/30 05:04:45;;;;;;;42.60;23.80;;;409.90;2227.20;;;;;;5036216;28;20052;-63
2021/04/30 05:07:12;;;;;;;36.83;24.10;;;409.90;2227.20;;;;;;5036203;28;20370;-62
2021/04/30 05:09:37;;;;;;;35.55;23.63;;;410.00;2227.20;;;;;;5036117;28;20343;-63
2021/04/30 05:12:04;;;;;;;29.83;20.33;;;410.10;2227.20;;;;;;5036158;28;20067;-62
2021/04/30 05:14:30;;;;;;;30.15;20.35;;;410.10;2227.20;;;;;;5035913;28;20386;-63
2021/04/30 05:16:56;;;;;;;28.40;19.55;;;410.10;2227.20;;;;;;5036098;28;20024;-63
2021/04/30 05:19:22;;;;;;;24.40;17.70;;;410.10;2227.20;;;;;;5035958;28;20412;-62
2021/04/30 05:21:48;;;;;;;25.40;17.92;;;410.20;2201.60;;;;;;5036237;28;20402;-62
2021/04/30 05:24:15;;;;;;;25.60;17.80;;;410.30;2227.20;;;;;;5035886;28;20378;-63
2021/04/30 05:26:42;;;;;;;24.55;17.17;;;410.30;2201.60;;;;;;5035853;28;20549;-63
2021/04/30 05:29:08;;;;;;;25.20;19.27;;;410.40;2201.60;;;;;;5022630;28;20414;-63
2021/04/30 05:31:35;;;;;;;24.42;17.63;;;410.50;2201.60;;;;;;5016249;28;20026;-63
2021/04/30 05:34:02;;;;;;;23.35;17.85;;;410.50;2227.20;;;;;;5015911;28;20399;-63
2021/04/30 05:36:29;;;;;;;22.58;15.98;;;435.20;2227.20;;;;;;5015779;28;20483;-63
2021/04/30 05:38:55;;;;;;;22.13;15.52;;;435.20;2227.20;;;;;;5016086;28;20419;-63
2021/04/30 05:41:21;;;;;;;18.77;15.32;;;435.30;2201.60;;;;;;5015743;28;20418;-63
2021/04/30 05:43:48;;;;;;;23.23;15.85;;;435.40;2227.20;;;;;;5015703;28;20459;-63
2021/04/30 05:46:14;;;;;;;22.83;15.90;;;435.40;2201.60;;;;;;5015502;28;20434;-63
2021/04/30 05:48:40;;;;;;;20.73;13.60;;;435.60;2227.20;;;;;;5015682;28;20410;-63
2021/04/30 05:51:07;;;;;;;18.10;13.98;;;435.60;2201.60;;;;;;5015552;28;20478;-63
2021/04/30 05:53:33;;;;;;;18.08;13.23;;;435.70;2201.60;;;;;;5015532;28;20049;-63
2021/04/30 05:55:59;;;;;;;18.55;12.73;;;435.80;2176.00;;;;;;5015349;28;20387;-63
2021/04/30 05:58:25;;;;;;;16.17;12.80;;;435.90;2201.60;;;;;;5015719;28;20344;-63
2021/04/30 06:00:52;;;;;;;17.77;13.57;;;436.10;2176.00;;;;;;5015356;28;20467;-64
2021/04/30 06:03:18;;;;;;;18.92;13.45;;;460.80;2201.60;;;;;;5015423;28;20362;-63
2021/04/30 06:05:44;;;;;;;18.67;12.82;;;460.90;2201.60;;;;;;5015262;28;20414;-64
2021/04/30 06:08:10;;;;;;;20.55;12.80;;;461.00;2201.60;;;;;;5015458;28;20405;-63
2021/04/30 06:13:58;;;;;;;17.00;11.18;;;461.30;2176.00;;;;;;5015303;28;20072;-63
2021/04/30 06:16:24;;;;;;;17.42;10.88;;;461.40;2150.40;;;;;;5015604;28;20339;-64
2021/04/30 06:18:50;;;;;;;15.32;10.55;;;461.50;2150.40;;;;;;5015043;28;20398;-63
2021/04/30 06:21:17;;;;;;;18.65;10.82;;;461.50;2124.80;;;;;;5015266;28;20390;-64
2021/04/30 06:23:43;;;;;;;13.15;9.63;;;461.50;2124.80;;;;;;5014955;28;20344;-64
2021/04/30 06:26:09;;;;;;;17.17;10.73;;;461.60;2099.20;;;;;;5014903;28;20465;-71
2021/04/30 06:28:35;;;;;;;15.45;10.25;;;461.70;2124.80;;;;;;5014734;28;20422;-64
2021/04/30 06:31:01;;;;;;;14.40;10.50;;;486.50;2099.20;;;;;;5014807;28;20419;-64
2021/04/30 06:33:27;;;;;;;17.08;10.93;;;486.60;2124.80;;;;;;5014848;28;20363;-68
2021/04/30 06:35:53;;;;;;;17.55;11.00;;;486.80;2073.60;;;;;;5014570;28;20371;-63
2021/04/30 06:38:19;;;;;;;16.48;10.82;;;486.90;2073.60;;;;;;5014499;28;20413;-70
2021/04/30 06:40:45;;;;;;;15.68;9.02;;;487.10;2073.60;;;;;;4996953;28;20156;-72
2021/04/30 06:43:11;;;;;;;15.73;10.18;;;487.10;2022.40;;;;;;5014374;28;20375;-73
2021/04/30 06:45:37;;;;;;;16.67;10.55;;;487.10;2022.40;;;;;;5014460;28;20375;-72
2021/04/30 06:48:04;;;;;;;23.15;10.93;;;487.20;2022.40;;;;;;5014573;28;20024;-69
2021/04/30 06:50:30;;;;;;;17.27;10.35;;;487.30;1996.80;;;;;;5014436;28;20374;-69
2021/04/30 06:52:56;;;;;;;14.57;10.35;;;512.00;1996.80;;;;;;5014708;28;20018;-69
2021/04/30 06:55:22;;;;;;;18.02;9.63;;;512.10;1971.20;;;;;;5014300;28;20041;-71
2021/04/30 06:57:48;;;;;;;15.65;9.50;;;512.30;1971.20;;;;;;4996289;28;20398;-72
2021/04/30 07:00:18;;;;;;;14.13;9.13;;;512.60;1971.20;;;;;;5014635;28;20033;-68
2021/04/30 07:02:44;;;;;;;14.90;7.45;;;512.90;1894.40;;;;;;5014364;28;20367;-73
2021/04/30 07:05:11;;;;;;;11.70;6.38;;;512.90;1843.20;;;;;;4996552;28;20442;-73
2021/04/30 07:07:38;;;;;;;12.15;6.38;;;537.60;1817.60;;;;;;5014209;28;20427;-73
2021/04/30 07:10:06;;;;;;;9.57;6.03;;;537.60;1843.20;;;;;;5014384;28;20069;-70
2021/04/30 07:12:32;;;;;;;13.05;5.25;;;537.70;1843.20;;;;;;4996574;28;20352;-64
2021/04/30 07:15:00;;;;;;;11.60;6.05;;;537.70;1792.00;;;;;;5014082;28;20382;-73
2021/04/30 07:17:27;;;;;;;15.38;6.60;;;537.80;1817.60;;;;;;5013960;28;20435;-64
2021/04/30 07:19:54;;;;;;;21.13;7.60;;;537.90;1817.60;;;;;;5014229;28;20413;-79
2021/04/30 07:22:20;;;;;;;17.02;10.43;;;538.10;1817.60;;;;;;4996416;28;20374;-70
2021/04/30 07:24:46;;;;;;;19.20;11.68;;;538.00;1792.00;;;;;;5013944;28;20417;-65
2021/04/30 07:27:12;;;;;;;28.58;12.30;;;538.10;1792.00;;;;;;5014293;28;20459;-64
2021/04/30 07:29:39;;;;;;;22.27;10.18;;;538.00;1792.00;;;;;;5014134;28;20053;-63
2021/04/30 07:32:06;;;;;;;24.38;11.85;;;538.20;1792.00;;;;;;5013864;28;20367;-63
2021/04/30 07:34:32;;;;;;;14.38;8.55;;;538.30;1817.60;;;;;;5013721;28;20365;-63
2021/04/30 07:36:58;;;;;;;23.80;10.45;;;538.30;1792.00;;;;;;5013795;28;20427;-65
2021/04/30 07:39:24;;;;;;;24.77;8.80;;;538.40;1792.00;;;;;;5013865;28;20339;-64
2021/04/30 07:41:50;;;;;;;14.15;6.85;;;538.40;1766.40;;;;;;5013716;28;20418;-65
2021/04/30 07:44:16;;;;;;;16.95;10.50;;;538.50;1740.80;;;;;;5013837;28;20397;-63
2021/04/30 07:46:42;;;;;;;14.73;8.23;;;563.20;1792.00;;;;;;5013770;28;20033;-64
2021/04/30 07:49:08;;;;;;;14.50;8.85;;;563.20;1740.80;;;;;;5013790;28;20418;-75
2021/04/30 07:51:35;;;;;;;16.67;9.48;;;563.30;1740.80;;;;;;5013676;28;20370;-63
2021/04/30 07:54:01;;;;;;;11.85;6.22;;;563.30;1715.20;;;;;;5013693;28;20351;-63
2021/04/30 07:56:27;;;;;;;9.65;3.55;;;563.40;1689.60;;;;;;5013545;28;20390;-63
2021/04/30 07:58:53;;;;;;;15.98;6.05;;;563.50;1664.00;;;;;;5013560;28;20367;-63
2021/04/30 08:01:19;;;;;;;14.25;5.38;;;563.50;1638.40;;;;;;5013840;28;20438;-63
2021/04/30 08:03:46;;;;;;;12.18;6.00;;;563.50;1664.00;;;;;;5013542;28;20413;-64
2021/04/30 08:06:12;;;;;;;15.00;6.70;;;563.60;1689.60;;;;;;5013499;28;20371;-63
2021/04/30 08:08:40;;;;;;;15.90;7.25;;;563.60;1638.40;;;;;;5013516;28;20441;-63
2021/04/30 08:11:09;;;;;;;22.67;10.32;;;563.70;1664.00;;;;;;5017147;28;20382;-76
2021/04/30 08:13:36;;;;;;;22.25;10.27;;;563.70;1689.60;;;;;;5017714;28;20366;-64
2021/04/30 08:16:03;;;;;;;16.20;8.50;;;563.70;1638.40;;;;;;5017299;28;20445;-63
2021/04/30 08:18:30;;;;;;;24.98;13.30;;;563.80;1612.80;;;;;;5000306;28;20402;-63
2021/04/30 08:20:56;;;;;;;19.23;8.60;;;563.90;1664.00;;;;;;5017340;28;20029;-63
2021/04/30 08:23:23;;;;;;;19.15;9.35;;;564.00;1612.80;;;;;;5017492;28;20328;-63
2021/04/30 08:25:49;;;;;;;15.57;8.40;;;563.90;1587.20;;;;;;5017159;28;20363;-64
2021/04/30 08:28:15;;;;;;;22.17;9.38;;;564.00;1612.80;;;;;;5016998;28;20419;-63
2021/04/30 08:30:42;;;;;;;17.02;4.43;;;564.00;1638.40;;;;;;5017686;28;20056;-67
2021/04/30 08:33:09;;;;;;;10.23;3.00;;;564.10;1561.60;;;;;;5017030;28;20402;-74
2021/04/30 08:35:40;;;;;;;14.98;6.07;;;564.10;1510.40;;;;;;5016814;28;20426;-75
2021/04/30 08:38:08;;;;;;;7.70;4.32;;;588.80;1510.40;;;;;;5016708;28;20422;-74
2021/04/30 08:40:43;;;;;;;12.32;4.82;;;588.80;1433.60;;;;;;5016864;28;20014;-75
2021/04/30 08:43:18;;;;;;;22.67;13.00;;;588.80;1459.20;;;;;;4999158;28;20460;-73
2021/04/30 08:45:55;;;;;;;11.30;4.57;;;588.90;1459.20;;;;;;5016867;28;20093;-71
2021/04/30 08:48:25;;;;;;;13.20;4.70;;;589.00;1510.40;;;;;;5016773;28;20340;-74
2021/04/30 08:50:54;;;;;;;22.55;17.05;;;589.10;1510.40;;;;;;5016707;28;20461;-74
2021/04/30 08:53:22;;;;;;;89.43;28.65;;;588.90;1433.60;;;;;;4999087;28;20401;-74
2021/04/30 08:55:52;;;;;;;26.40;12.93;;;588.90;1459.20;;;;;;5016447;28;20378;-74
2021/04/30 08:58:27;;;;;;;15.15;5.70;;;588.90;1484.80;;;;;;5017203;28;20014;-73
2021/04/30 09:00:56;;;;;;;9.23;3.13;;;589.00;1459.20;;;;;;4998930;28;20462;-74
2021/04/30 09:03:24;;;;;;;6.13;2.65;;;589.00;1408.00;;;;;;5017224;28;20347;-74
2021/04/30 09:05:56;;;;;;;19.55;3.20;;;589.10;1408.00;;;;;;5016330;28;20416;-75
2021/04/30 09:08:26;;;;;;;20.73;4.72;;;589.10;1382.40;;;;;;5016745;28;20470;-74
2021/04/30 09:10:56;;;;;;;8.23;3.63;;;589.10;1356.80;;;;;;5016565;28;20355;-73
2021/04/30 09:13:25;;;;;;;8.40;3.53;;;589.00;1408.00;;;;;;5016645;28;20397;-73
2021/04/30 09:16:06;;;;;;;7.65;2.58;;;588.90;1433.60;;;;;;5016246;28;20366;-74
2021/04/30 09:18:33;;;;;;;9.52;5.53;;;589.00;1408.00;;;;;;5016225;28;20359;-74
2021/04/30 09:21:08;;;;;;;8.27;3.97;;;589.10;1459.20;;;;;;4998307;28;20466;-73
2021/04/30 09:23:39;;;;;;;9.23;3.95;;;589.20;1433.60;;;;;;5016437;28;20450;-73
2021/04/30 09:26:26;;;;;;;13.25;4.40;;;589.20;1459.20;;;;;;5016378;28;20375;-72
2021/04/30 09:29:04;;;;;;;11.23;3.78;;;589.30;1382.40;;;;;;5016228;28;20444;-73
2021/04/30 09:31:34;;;;;;;13.35;10.00;;;589.30;1408.00;;;;;;5015932;28;20374;-72
2021/04/30 09:34:26;;;;;;;35.35;26.38;;;589.30;1382.40;;;;;;5015921;28;20474;-74
2021/04/30 09:36:56;;;;;;;13.02;4.18;;;589.30;1433.60;;;;;;5015730;28;20427;-73
2021/04/30 09:39:22;;;;;;;14.55;6.57;;;589.30;1433.60;;;;;;5015882;28;20388;-73
2021/04/30 09:42:09;;;;;;;6.40;2.13;;;589.40;1356.80;;;;;;5015816;28;20371;-65
2021/04/30 09:44:40;;;;;;;7.93;2.83;;;589.40;1331.20;;;;;;5015998;28;20355;-64
2021/04/30 09:47:14;;;;;;;3.88;1.77;;;589.40;1408.00;;;;;;5015698;28;20394;-72
2021/04/30 09:49:40;;;;;;;9.20;2.05;;;589.40;1331.20;;;;;;5015555;28;20401;-66
2021/04/30 09:52:08;;;;;;;12.82;3.88;;;589.40;1331.20;;;;;;5016092;28;20340;-73
2021/04/30 09:54:35;;;;;;;10.68;2.97;;;589.50;1408.00;;;;;;5015627;28;20344;-73
2021/04/30 09:57:10;;;;;;;9.00;2.92;;;589.40;1408.00;;;;;;5015190;28;20386;-72
2021/04/30 09:59:38;;;;;;;19.42;9.27;;;589.50;1408.00;;;;;;5015612;28;20415;-72
2021/04/30 10:02:09;;;;;;;13.70;4.20;;;589.50;1356.80;;;;;;5015342;28;20378;-80
2021/04/30 10:04:42;;;;;;;10.73;3.42;;;589.40;1331.20;;;;;;5015132;28;20354;-70
2021/04/30 10:07:08;;;;;;;13.98;5.55;;;589.50;1382.40;;;;;;5015402;28;20366;-73
2021/04/30 10:09:36;;;;;;;14.73;5.80;;;589.50;1408.00;;;;;;5015021;28;20415;-71
2021/04/30 10:12:23;;;;;;;11.95;3.88;;;589.70;1433.60;;;;;;5015021;28;20378;-71
2021/04/30 10:14:50;;;;;;;11.48;3.25;;;614.40;1382.40;;;;;;5014960;28;20344;-75
2021/04/30 10:17:16;;;;;;;14.15;5.57;;;614.40;1459.20;;;;;;5015239;28;20395;-72
2021/04/30 10:19:44;;;;;;;22.00;6.20;;;614.50;1433.60;;;;;;5015549;28;20439;-72
2021/04/30 10:22:20;;;;;;;15.07;5.45;;;614.60;1382.40;;;;;;5014845;28;20398;-71
2021/04/30 10:24:51;;;;;;;15.65;5.60;;;614.70;1408.00;;;;;;5014954;28;20366;-64
2021/04/30 10:27:41;;;;;;;10.13;3.25;;;614.60;1382.40;;;;;;5015473;28;20537;-70
2021/04/30 10:30:37;;;;;;;18.75;6.05;;;614.50;1408.00;;;;;;5034629;28;20037;-75
2021/04/30 10:33:13;;;;;;;10.32;3.30;;;614.40;1408.00;;;;;;5032859;28;20417;-67
2021/04/30 10:35:55;;;;;;;11.10;3.05;;;614.40;1433.60;;;;;;5033997;28;20025;-68
2021/04/30 10:38:23;;;;;;;10.60;4.75;;;614.50;1408.00;;;;;;5033890;28;20369;-65
2021/04/30 10:41:04;;;;;;;14.48;4.90;;;614.60;1459.20;;;;;;5034071;28;20030;-73
2021/04/30 10:43:32;;;;;;;12.25;4.25;;;614.70;1433.60;;;;;;5034132;28;20470;-63
2021/04/30 10:46:03;;;;;;;10.60;5.55;;;614.70;1408.00;;;;;;5034255;28;20433;-62
2021/04/30 10:48:30;;;;;;;9.00;3.67;;;614.60;1459.20;;;;;;5033900;28;20421;-63
2021/04/30 10:51:14;;;;;;;11.23;3.08;;;614.60;1433.60;;;;;;5034194;28;20419;-63
2021/04/30 10:53:41;;;;;;;;;;;614.60;1408.00;;;;;;5034273;28;20359;-62
2021/04/30 10:56:36;;;;;;;9.57;2.88;;;614.50;1433.60;;;;;;5033693;28;20261;-63
2021/04/30 10:59:07;;;;;;;55.88;46.83;;;614.50;1408.00;;;;;;4934829;29;20540;-64
2021/04/30 11:01:35;;;;;;;19.23;10.82;;;614.50;1408.00;;;;;;4934689;29;20393;-66
2021/04/30 11:04:10;;;;;;;7.43;2.25;;;614.50;1356.80;;;;;;4934555;29;20373;-64
2021/04/30 11:06:47;;;;;;;7.50;2.10;;;614.50;1356.80;;;;;;4934388;29;20342;-69
2021/04/30 11:09:19;;;;;;;10.18;2.60;;;614.40;1356.80;;;;;;4934478;29;20370;-63
2021/04/30 11:11:45;;;;;;;8.82;2.45;;;614.50;1331.20;;;;;;4934681;29;20479;-74
2021/04/30 11:14:28;;;;;;;14.55;3.75;;;614.50;1382.40;;;;;;4934497;29;20425;-64
2021/04/30 11:16:56;;;;;;;13.43;2.05;;;614.60;1382.40;;;;;;4934539;29;20420;-65
2021/04/30 11:19:25;;;;;;;20.08;2.80;;;614.50;1356.80;;;;;;4934248;29;20377;-71
2021/04/30 11:21:54;;;;;;;6.82;1.85;;;614.60;1382.40;;;;;;4934321;29;20449;-64
2021/04/30 11:24:28;;;;;;;9.60;2.20;;;614.50;1356.80;;;;;;4934335;29;20409;-70
2021/04/30 11:27:21;;;;;;;6.10;2.20;;;614.60;1356.80;;;;;;4934757;29;20550;-74
2021/04/30 11:29:48;;;;;;;7.60;2.28;;;614.50;1356.80;;;;;;4952188;29;20436;-66
2021/04/30 11:32:25;;;;;;;8.10;2.05;;;614.60;1356.80;;;;;;4954041;29;20353;-73
2021/04/30 11:34:59;;;;;;;8.50;2.47;;;614.60;1356.80;;;;;;4975138;28;20528;-67
2021/04/30 11:37:28;;;;;;;6.18;2.28;;;614.60;1356.80;;;;;;5033460;28;20485;-72
2021/04/30 11:39:56;;;;;;;11.65;2.53;;;614.50;1356.80;;;;;;5033273;28;20413;-64
2021/04/30 11:42:32;;;;;;;9.38;1.77;;;614.50;1382.40;;;;;;5033295;28;20446;-70
2021/04/30 11:45:00;;;;;;;6.65;2.00;;;614.60;1356.80;;;;;;5033087;28;20348;-64
2021/04/30 11:47:40;;;;;;;21.05;2.55;;;614.60;1356.80;;;;;;5033273;28;20370;-62
2021/04/30 11:50:09;;;;;;;6.70;1.85;;;614.60;1356.80;;;;;;5033294;28;20370;-74
2021/04/30 11:52:41;;;;;;;6.13;2.00;;;614.60;1331.20;;;;;;5033300;28;20347;-73
2021/04/30 11:55:20;;;;;;;5.97;2.20;;;614.80;1280.00;;;;;;5033558;28;20351;-71
2021/04/30 11:57:59;;;;;;;7.85;1.98;;;614.70;1331.20;;;;;;5033267;28;20412;-65
2021/04/30 12:00:32;;;;;;;24.25;2.58;;;614.70;1305.60;;;;;;5033882;28;20441;-65
2021/04/30 12:03:03;;;;;;;9.02;1.75;;;614.60;1305.60;;;;;;5033224;28;20422;-62
2021/04/30 12:05:30;;;;;;;5.57;1.83;;;614.50;1305.60;;;;;;5033168;28;20355;-70
2021/04/30 12:07:56;;;;;;;4.75;1.60;;;614.50;1331.20;;;;;;5033158;28;20397;-72
2021/04/30 12:10:26;;;;;;;14.90;1.85;;;614.50;1331.20;;;;;;5033704;28;20513;-63
2021/04/30 12:12:52;;;;;;;4.47;1.50;;;614.60;1280.00;;;;;;5033062;28;20414;-69